sensor_id;sensor_type;location;lat;lon;timestamp;P1;durP1;ratioP1;P2;durP2;ratioP2
17024;SDS011;8629;42.496;25.620;2023-09-18T00:02:14;3.57;;;2.37;;
17024;SDS011;8629;42.496;25.620;2023-09-18T00:04:40;2.67;;;2.23;;
17024;SDS011;8629;42.496;25.620;2023-09-18T00:07:07;3.17;;;2.67;;
17024;SDS011;8629;42.496;25.620;2023-09-18T00:09:36;4.23;;;2.40;;
17024;SDS011;8629;42.496;25.620;2023-09-18T00:12:03;3.43;;;2.47;;
17024;SDS011;8629;42.496;25.620;2023-09-18T00:14:35;5.47;;;2.70;;
17024;SDS011;8629;42.496;25.620;2023-09-18T00:17:02;4.37;;;2.87;;
17024;SDS011;8629;42.496;25.620;2023-09-18T00:19:29;3.90;;;2.77;;
17024;SDS011;8629;42.496;25.620;2023-09-18T00:21:58;4.20;;;2.57;;
17024;SDS011;8629;42.496;25.620;2023-09-18T00:24:25;4.70;;;3.00;;
17024;SDS011;8629;42.496;25.620;2023-09-18T00:26:52;5.67;;;3.00;;
17024;SDS011;8629;42.496;25.620;2023-09-18T00:29:19;4.10;;;2.87;;
17024;SDS011;8629;42.496;25.620;2023-09-18T00:31:47;3.33;;;2.40;;
17024;SDS011;8629;42.496;25.620;2023-09-18T00:34:14;4.47;;;2.73;;
17024;SDS011;8629;42.496;25.620;2023-09-18T00:36:41;2.80;;;2.60;;
17024;SDS011;8629;42.496;25.620;2023-09-18T00:39:07;2.70;;;2.50;;
17024;SDS011;8629;42.496;25.620;2023-09-18T00:41:35;4.40;;;2.50;;
17024;SDS011;8629;42.496;25.620;2023-09-18T00:44:02;4.67;;;2.70;;
17024;SDS011;8629;42.496;25.620;2023-09-18T00:46:30;3.53;;;2.47;;
17024;SDS011;8629;42.496;25.620;2023-09-18T00:48:59;6.10;;;2.80;;
17024;SDS011;8629;42.496;25.620;2023-09-18T00:51:25;4.93;;;2.60;;
17024;SDS011;8629;42.496;25.620;2023-09-18T00:53:52;4.07;;;2.83;;
17024;SDS011;8629;42.496;25.620;2023-09-18T00:56:19;3.90;;;2.77;;
17024;SDS011;8629;42.496;25.620;2023-09-18T00:58:46;3.23;;;2.50;;
17024;SDS011;8629;42.496;25.620;2023-09-18T01:01:13;2.70;;;2.50;;
17024;SDS011;8629;42.496;25.620;2023-09-18T01:03:41;2.90;;;2.50;;
17024;SDS011;8629;42.496;25.620;2023-09-18T01:06:09;4.07;;;2.80;;
17024;SDS011;8629;42.496;25.620;2023-09-18T01:08:36;3.40;;;2.63;;
17024;SDS011;8629;42.496;25.620;2023-09-18T01:11:04;6.27;;;2.87;;
17024;SDS011;8629;42.496;25.620;2023-09-18T01:13:35;3.87;;;2.77;;
17024;SDS011;8629;42.496;25.620;2023-09-18T01:16:06;2.83;;;2.20;;
17024;SDS011;8629;42.496;25.620;2023-09-18T01:18:35;2.93;;;2.70;;
17024;SDS011;8629;42.496;25.620;2023-09-18T01:21:01;4.20;;;2.80;;
17024;SDS011;8629;42.496;25.620;2023-09-18T01:23:30;2.67;;;2.37;;
17024;SDS011;8629;42.496;25.620;2023-09-18T01:25:56;2.87;;;2.50;;
17024;SDS011;8629;42.496;25.620;2023-09-18T01:28:23;3.23;;;2.93;;
17024;SDS011;8629;42.496;25.620;2023-09-18T01:30:50;3.03;;;2.73;;
17024;SDS011;8629;42.496;25.620;2023-09-18T01:33:18;2.60;;;2.40;;
17024;SDS011;8629;42.496;25.620;2023-09-18T01:35:45;3.47;;;2.97;;
17024;SDS011;8629;42.496;25.620;2023-09-18T01:38:12;7.87;;;2.93;;
17024;SDS011;8629;42.496;25.620;2023-09-18T01:40:41;3.97;;;2.50;;
17024;SDS011;8629;42.496;25.620;2023-09-18T01:43:08;3.77;;;2.67;;
17024;SDS011;8629;42.496;25.620;2023-09-18T01:45:35;2.87;;;2.60;;
17024;SDS011;8629;42.496;25.620;2023-09-18T01:48:03;4.07;;;2.80;;
17024;SDS011;8629;42.496;25.620;2023-09-18T01:50:31;2.47;;;2.27;;
17024;SDS011;8629;42.496;25.620;2023-09-18T01:52:58;3.53;;;2.50;;
17024;SDS011;8629;42.496;25.620;2023-09-18T01:55:25;3.33;;;2.43;;
17024;SDS011;8629;42.496;25.620;2023-09-18T01:57:55;4.73;;;3.07;;
17024;SDS011;8629;42.496;25.620;2023-09-18T02:00:22;3.30;;;2.57;;
17024;SDS011;8629;42.496;25.620;2023-09-18T02:02:49;4.43;;;3.20;;
17024;SDS011;8629;42.496;25.620;2023-09-18T02:05:15;3.63;;;2.90;;
17024;SDS011;8629;42.496;25.620;2023-09-18T02:07:42;5.23;;;2.87;;
17024;SDS011;8629;42.496;25.620;2023-09-18T02:10:09;2.60;;;2.40;;
17024;SDS011;8629;42.496;25.620;2023-09-18T02:12:37;3.83;;;2.70;;
17024;SDS011;8629;42.496;25.620;2023-09-18T02:15:06;4.33;;;2.63;;
17024;SDS011;8629;42.496;25.620;2023-09-18T02:17:36;2.70;;;2.50;;
17024;SDS011;8629;42.496;25.620;2023-09-18T02:20:03;3.83;;;2.50;;
17024;SDS011;8629;42.496;25.620;2023-09-18T02:22:36;2.57;;;2.37;;
17024;SDS011;8629;42.496;25.620;2023-09-18T02:25:05;3.27;;;2.60;;
17024;SDS011;8629;42.496;25.620;2023-09-18T02:27:32;2.63;;;2.33;;
17024;SDS011;8629;42.496;25.620;2023-09-18T02:29:59;2.90;;;2.20;;
17024;SDS011;8629;42.496;25.620;2023-09-18T02:32:27;2.60;;;2.40;;
17024;SDS011;8629;42.496;25.620;2023-09-18T02:34:54;2.50;;;2.30;;
17024;SDS011;8629;42.496;25.620;2023-09-18T02:37:21;4.50;;;2.73;;
17024;SDS011;8629;42.496;25.620;2023-09-18T02:39:49;3.43;;;2.60;;
17024;SDS011;8629;42.496;25.620;2023-09-18T02:42:15;5.13;;;2.63;;
17024;SDS011;8629;42.496;25.620;2023-09-18T02:44:42;4.10;;;2.50;;
17024;SDS011;8629;42.496;25.620;2023-09-18T02:47:09;3.77;;;2.63;;
17024;SDS011;8629;42.496;25.620;2023-09-18T02:49:37;2.87;;;2.53;;
17024;SDS011;8629;42.496;25.620;2023-09-18T02:52:04;3.63;;;3.33;;
17024;SDS011;8629;42.496;25.620;2023-09-18T02:54:31;4.33;;;2.27;;
17024;SDS011;8629;42.496;25.620;2023-09-18T02:56:58;5.63;;;3.07;;
17024;SDS011;8629;42.496;25.620;2023-09-18T02:59:25;4.70;;;2.60;;
17024;SDS011;8629;42.496;25.620;2023-09-18T03:01:51;3.93;;;2.93;;
17024;SDS011;8629;42.496;25.620;2023-09-18T03:04:18;4.47;;;2.80;;
17024;SDS011;8629;42.496;25.620;2023-09-18T03:06:47;3.20;;;2.30;;
17024;SDS011;8629;42.496;25.620;2023-09-18T03:09:14;2.70;;;2.50;;
17024;SDS011;8629;42.496;25.620;2023-09-18T03:11:41;3.90;;;3.50;;
17024;SDS011;8629;42.496;25.620;2023-09-18T03:14:09;3.30;;;3.00;;
17024;SDS011;8629;42.496;25.620;2023-09-18T03:16:35;3.60;;;2.70;;
17024;SDS011;8629;42.496;25.620;2023-09-18T03:19:02;4.23;;;2.60;;
17024;SDS011;8629;42.496;25.620;2023-09-18T03:21:29;4.70;;;3.07;;
17024;SDS011;8629;42.496;25.620;2023-09-18T03:23:59;3.47;;;3.00;;
17024;SDS011;8629;42.496;25.620;2023-09-18T03:26:26;3.40;;;3.10;;
17024;SDS011;8629;42.496;25.620;2023-09-18T03:28:53;2.40;;;2.20;;
17024;SDS011;8629;42.496;25.620;2023-09-18T03:31:20;3.33;;;2.47;;
17024;SDS011;8629;42.496;25.620;2023-09-18T03:33:46;3.33;;;2.80;;
17024;SDS011;8629;42.496;25.620;2023-09-18T03:36:13;3.60;;;2.90;;
17024;SDS011;8629;42.496;25.620;2023-09-18T03:38:40;4.17;;;3.00;;
17024;SDS011;8629;42.496;25.620;2023-09-18T03:41:08;4.30;;;2.53;;
17024;SDS011;8629;42.496;25.620;2023-09-18T03:43:35;4.97;;;2.33;;
17024;SDS011;8629;42.496;25.620;2023-09-18T03:46:04;3.03;;;2.50;;
17024;SDS011;8629;42.496;25.620;2023-09-18T03:48:31;2.87;;;2.67;;
17024;SDS011;8629;42.496;25.620;2023-09-18T03:51:02;2.67;;;2.47;;
17024;SDS011;8629;42.496;25.620;2023-09-18T03:53:29;2.63;;;2.43;;
17024;SDS011;8629;42.496;25.620;2023-09-18T03:55:56;2.73;;;2.53;;
17024;SDS011;8629;42.496;25.620;2023-09-18T03:58:24;2.67;;;2.33;;
17024;SDS011;8629;42.496;25.620;2023-09-18T04:00:51;3.20;;;2.50;;
17024;SDS011;8629;42.496;25.620;2023-09-18T04:03:18;3.13;;;2.33;;
17024;SDS011;8629;42.496;25.620;2023-09-18T04:05:45;5.30;;;2.70;;
17024;SDS011;8629;42.496;25.620;2023-09-18T04:08:12;2.87;;;2.67;;
17024;SDS011;8629;42.496;25.620;2023-09-18T04:10:38;3.23;;;2.93;;
17024;SDS011;8629;42.496;25.620;2023-09-18T04:13:05;5.60;;;3.00;;
17024;SDS011;8629;42.496;25.620;2023-09-18T04:15:33;3.37;;;2.13;;
17024;SDS011;8629;42.496;25.620;2023-09-18T04:18:03;3.67;;;3.10;;
17024;SDS011;8629;42.496;25.620;2023-09-18T04:20:30;4.93;;;2.90;;
17024;SDS011;8629;42.496;25.620;2023-09-18T04:23:17;4.27;;;2.87;;
17024;SDS011;8629;42.496;25.620;2023-09-18T04:25:46;3.77;;;2.67;;
17024;SDS011;8629;42.496;25.620;2023-09-18T04:28:12;3.20;;;2.90;;
17024;SDS011;8629;42.496;25.620;2023-09-18T04:30:41;4.30;;;3.00;;
17024;SDS011;8629;42.496;25.620;2023-09-18T04:33:08;5.43;;;2.87;;
17024;SDS011;8629;42.496;25.620;2023-09-18T04:35:35;3.30;;;2.80;;
17024;SDS011;8629;42.496;25.620;2023-09-18T04:38:05;3.97;;;3.30;;
17024;SDS011;8629;42.496;25.620;2023-09-18T04:40:33;3.43;;;3.10;;
17024;SDS011;8629;42.496;25.620;2023-09-18T04:43:00;3.40;;;3.07;;
17024;SDS011;8629;42.496;25.620;2023-09-18T04:45:28;3.00;;;2.77;;
17024;SDS011;8629;42.496;25.620;2023-09-18T04:47:57;3.53;;;3.23;;
17024;SDS011;8629;42.496;25.620;2023-09-18T04:50:23;3.93;;;3.30;;
17024;SDS011;8629;42.496;25.620;2023-09-18T04:52:51;4.47;;;3.37;;
17024;SDS011;8629;42.496;25.620;2023-09-18T04:55:19;5.93;;;3.50;;
17024;SDS011;8629;42.496;25.620;2023-09-18T04:57:47;4.97;;;4.00;;
17024;SDS011;8629;42.496;25.620;2023-09-18T05:00:14;4.53;;;3.57;;
17024;SDS011;8629;42.496;25.620;2023-09-18T05:02:42;5.83;;;3.40;;
17024;SDS011;8629;42.496;25.620;2023-09-18T05:05:10;8.40;;;3.93;;
17024;SDS011;8629;42.496;25.620;2023-09-18T05:07:37;5.50;;;3.97;;
17024;SDS011;8629;42.496;25.620;2023-09-18T05:10:04;6.53;;;4.00;;
17024;SDS011;8629;42.496;25.620;2023-09-18T05:12:32;11.17;;;4.00;;
17024;SDS011;8629;42.496;25.620;2023-09-18T05:14:58;7.20;;;3.17;;
17024;SDS011;8629;42.496;25.620;2023-09-18T05:17:39;9.60;;;4.07;;
17024;SDS011;8629;42.496;25.620;2023-09-18T05:20:08;5.83;;;3.50;;
17024;SDS011;8629;42.496;25.620;2023-09-18T05:22:38;4.07;;;3.37;;
17024;SDS011;8629;42.496;25.620;2023-09-18T05:25:05;4.30;;;2.87;;
17024;SDS011;8629;42.496;25.620;2023-09-18T05:27:32;4.73;;;3.20;;
17024;SDS011;8629;42.496;25.620;2023-09-18T05:29:58;3.10;;;2.90;;
17024;SDS011;8629;42.496;25.620;2023-09-18T05:32:25;5.50;;;3.53;;
17024;SDS011;8629;42.496;25.620;2023-09-18T05:34:52;7.47;;;3.73;;
17024;SDS011;8629;42.496;25.620;2023-09-18T05:37:19;3.93;;;3.40;;
17024;SDS011;8629;42.496;25.620;2023-09-18T05:39:47;5.50;;;3.97;;
17024;SDS011;8629;42.496;25.620;2023-09-18T05:42:14;6.87;;;3.13;;
17024;SDS011;8629;42.496;25.620;2023-09-18T05:44:42;7.13;;;3.43;;
17024;SDS011;8629;42.496;25.620;2023-09-18T05:47:09;3.93;;;2.50;;
17024;SDS011;8629;42.496;25.620;2023-09-18T05:49:36;3.67;;;2.80;;
17024;SDS011;8629;42.496;25.620;2023-09-18T05:52:03;3.93;;;3.50;;
17024;SDS011;8629;42.496;25.620;2023-09-18T05:54:30;3.60;;;2.80;;
17024;SDS011;8629;42.496;25.620;2023-09-18T05:56:58;6.40;;;2.77;;
17024;SDS011;8629;42.496;25.620;2023-09-18T05:59:27;3.17;;;2.87;;
17024;SDS011;8629;42.496;25.620;2023-09-18T06:01:53;5.67;;;3.30;;
17024;SDS011;8629;42.496;25.620;2023-09-18T06:04:20;3.80;;;2.60;;
17024;SDS011;8629;42.496;25.620;2023-09-18T06:06:48;5.00;;;3.27;;
17024;SDS011;8629;42.496;25.620;2023-09-18T06:09:16;4.67;;;3.33;;
17024;SDS011;8629;42.496;25.620;2023-09-18T06:11:43;2.80;;;2.43;;
17024;SDS011;8629;42.496;25.620;2023-09-18T06:14:12;3.03;;;2.80;;
17024;SDS011;8629;42.496;25.620;2023-09-18T06:16:38;5.40;;;3.33;;
17024;SDS011;8629;42.496;25.620;2023-09-18T06:19:05;4.80;;;2.77;;
17024;SDS011;8629;42.496;25.620;2023-09-18T06:21:32;3.90;;;2.50;;
17024;SDS011;8629;42.496;25.620;2023-09-18T06:23:58;9.40;;;3.03;;
17024;SDS011;8629;42.496;25.620;2023-09-18T06:26:25;3.30;;;3.00;;
17024;SDS011;8629;42.496;25.620;2023-09-18T06:28:52;4.43;;;2.43;;
17024;SDS011;8629;42.496;25.620;2023-09-18T06:31:21;3.17;;;2.87;;
17024;SDS011;8629;42.496;25.620;2023-09-18T06:33:48;2.77;;;2.57;;
17024;SDS011;8629;42.496;25.620;2023-09-18T06:36:15;2.37;;;2.10;;
17024;SDS011;8629;42.496;25.620;2023-09-18T06:38:42;3.23;;;2.50;;
17024;SDS011;8629;42.496;25.620;2023-09-18T06:41:08;3.27;;;2.50;;
17024;SDS011;8629;42.496;25.620;2023-09-18T06:43:35;3.87;;;2.33;;
17024;SDS011;8629;42.496;25.620;2023-09-18T06:46:02;7.97;;;2.80;;
17024;SDS011;8629;42.496;25.620;2023-09-18T06:48:30;3.27;;;2.70;;
17024;SDS011;8629;42.496;25.620;2023-09-18T06:50:57;4.67;;;2.50;;
17024;SDS011;8629;42.496;25.620;2023-09-18T06:53:25;3.80;;;2.60;;
17024;SDS011;8629;42.496;25.620;2023-09-18T06:55:52;3.93;;;2.80;;
17024;SDS011;8629;42.496;25.620;2023-09-18T06:58:19;5.47;;;3.27;;
17024;SDS011;8629;42.496;25.620;2023-09-18T07:00:46;3.37;;;2.47;;
17024;SDS011;8629;42.496;25.620;2023-09-18T07:03:15;2.80;;;2.60;;
17024;SDS011;8629;42.496;25.620;2023-09-18T07:05:44;4.97;;;3.10;;
17024;SDS011;8629;42.496;25.620;2023-09-18T07:08:11;9.57;;;3.23;;
17024;SDS011;8629;42.496;25.620;2023-09-18T07:10:38;2.97;;;2.60;;
17024;SDS011;8629;42.496;25.620;2023-09-18T07:13:06;3.67;;;2.93;;
17024;SDS011;8629;42.496;25.620;2023-09-18T07:15:33;3.17;;;2.63;;
17024;SDS011;8629;42.496;25.620;2023-09-18T07:18:00;2.30;;;2.10;;
17024;SDS011;8629;42.496;25.620;2023-09-18T07:20:27;3.50;;;2.20;;
17024;SDS011;8629;42.496;25.620;2023-09-18T07:22:55;4.10;;;2.97;;
17024;SDS011;8629;42.496;25.620;2023-09-18T07:25:22;6.73;;;3.10;;
17024;SDS011;8629;42.496;25.620;2023-09-18T07:27:49;5.30;;;2.80;;
17024;SDS011;8629;42.496;25.620;2023-09-18T07:30:16;3.23;;;2.80;;
17024;SDS011;8629;42.496;25.620;2023-09-18T07:32:44;8.63;;;2.60;;
17024;SDS011;8629;42.496;25.620;2023-09-18T07:35:11;8.97;;;3.43;;
17024;SDS011;8629;42.496;25.620;2023-09-18T07:37:39;9.67;;;2.70;;
17024;SDS011;8629;42.496;25.620;2023-09-18T07:40:08;15.83;;;4.07;;
17024;SDS011;8629;42.496;25.620;2023-09-18T07:42:35;9.87;;;3.73;;
17024;SDS011;8629;42.496;25.620;2023-09-18T07:45:02;3.73;;;2.57;;
17024;SDS011;8629;42.496;25.620;2023-09-18T07:47:29;10.47;;;3.23;;
17024;SDS011;8629;42.496;25.620;2023-09-18T07:49:57;19.10;;;3.37;;
17024;SDS011;8629;42.496;25.620;2023-09-18T07:52:23;6.87;;;3.07;;
17024;SDS011;8629;42.496;25.620;2023-09-18T07:54:50;11.23;;;2.93;;
17024;SDS011;8629;42.496;25.620;2023-09-18T07:57:18;5.23;;;3.47;;
17024;SDS011;8629;42.496;25.620;2023-09-18T07:59:48;4.80;;;3.10;;
17024;SDS011;8629;42.496;25.620;2023-09-18T08:02:14;4.10;;;2.53;;
17024;SDS011;8629;42.496;25.620;2023-09-18T08:04:42;2.87;;;2.17;;
17024;SDS011;8629;42.496;25.620;2023-09-18T08:07:09;4.27;;;2.30;;
17024;SDS011;8629;42.496;25.620;2023-09-18T08:09:37;6.23;;;3.27;;
17024;SDS011;8629;42.496;25.620;2023-09-18T08:12:04;2.17;;;2.00;;
17024;SDS011;8629;42.496;25.620;2023-09-18T08:14:33;2.30;;;2.10;;
17024;SDS011;8629;42.496;25.620;2023-09-18T08:17:01;3.07;;;2.23;;
17024;SDS011;8629;42.496;25.620;2023-09-18T08:19:29;2.43;;;2.23;;
17024;SDS011;8629;42.496;25.620;2023-09-18T08:21:56;2.30;;;2.10;;
17024;SDS011;8629;42.496;25.620;2023-09-18T08:24:24;1.73;;;1.63;;
17024;SDS011;8629;42.496;25.620;2023-09-18T08:26:51;6.20;;;2.30;;
17024;SDS011;8629;42.496;25.620;2023-09-18T08:29:19;3.47;;;1.87;;
17024;SDS011;8629;42.496;25.620;2023-09-18T08:31:47;2.13;;;2.00;;
17024;SDS011;8629;42.496;25.620;2023-09-18T08:34:14;2.33;;;2.13;;
17024;SDS011;8629;42.496;25.620;2023-09-18T08:36:41;2.70;;;2.50;;
17024;SDS011;8629;42.496;25.620;2023-09-18T08:39:08;2.80;;;2.13;;
17024;SDS011;8629;42.496;25.620;2023-09-18T08:41:37;2.70;;;2.50;;
17024;SDS011;8629;42.496;25.620;2023-09-18T08:44:05;3.20;;;2.87;;
17024;SDS011;8629;42.496;25.620;2023-09-18T08:46:35;7.97;;;7.17;;
17024;SDS011;8629;42.496;25.620;2023-09-18T08:49:04;12.80;;;11.50;;
17024;SDS011;8629;42.496;25.620;2023-09-18T08:51:31;3.13;;;2.83;;
17024;SDS011;8629;42.496;25.620;2023-09-18T08:53:59;1.87;;;1.60;;
17024;SDS011;8629;42.496;25.620;2023-09-18T08:56:25;2.80;;;2.50;;
17024;SDS011;8629;42.496;25.620;2023-09-18T08:58:54;2.37;;;2.07;;
17024;SDS011;8629;42.496;25.620;2023-09-18T09:01:22;3.10;;;2.70;;
17024;SDS011;8629;42.496;25.620;2023-09-18T09:03:48;3.70;;;1.97;;
17024;SDS011;8629;42.496;25.620;2023-09-18T09:06:16;3.30;;;1.77;;
17024;SDS011;8629;42.496;25.620;2023-09-18T09:08:43;1.77;;;1.67;;
17024;SDS011;8629;42.496;25.620;2023-09-18T09:11:10;1.90;;;1.80;;
17024;SDS011;8629;42.496;25.620;2023-09-18T09:13:37;1.80;;;1.70;;
17024;SDS011;8629;42.496;25.620;2023-09-18T09:16:04;6.53;;;2.70;;
17024;SDS011;8629;42.496;25.620;2023-09-18T09:18:32;5.90;;;2.43;;
17024;SDS011;8629;42.496;25.620;2023-09-18T09:21:00;3.27;;;2.70;;
17024;SDS011;8629;42.496;25.620;2023-09-18T09:23:44;2.43;;;2.23;;
17024;SDS011;8629;42.496;25.620;2023-09-18T09:26:14;3.00;;;2.37;;
17024;SDS011;8629;42.496;25.620;2023-09-18T09:28:42;2.03;;;1.87;;
17024;SDS011;8629;42.496;25.620;2023-09-18T09:31:09;2.73;;;2.53;;
17024;SDS011;8629;42.496;25.620;2023-09-18T09:33:37;3.67;;;2.17;;
17024;SDS011;8629;42.496;25.620;2023-09-18T09:36:06;3.77;;;2.63;;
17024;SDS011;8629;42.496;25.620;2023-09-18T09:38:35;2.80;;;2.50;;
17024;SDS011;8629;42.496;25.620;2023-09-18T09:41:02;3.33;;;3.03;;
17024;SDS011;8629;42.496;25.620;2023-09-18T09:43:35;4.67;;;2.70;;
17024;SDS011;8629;42.496;25.620;2023-09-18T09:46:02;3.80;;;2.73;;
17024;SDS011;8629;42.496;25.620;2023-09-18T09:48:29;3.13;;;2.80;;
17024;SDS011;8629;42.496;25.620;2023-09-18T09:50:57;2.67;;;2.47;;
17024;SDS011;8629;42.496;25.620;2023-09-18T09:56:12;2.93;;;2.70;;
17024;SDS011;8629;42.496;25.620;2023-09-18T09:58:39;3.17;;;2.87;;
17024;SDS011;8629;42.496;25.620;2023-09-18T10:01:09;8.10;;;3.00;;
17024;SDS011;8629;42.496;25.620;2023-09-18T10:03:42;3.80;;;3.50;;
17024;SDS011;8629;42.496;25.620;2023-09-18T10:06:09;3.40;;;3.10;;
17024;SDS011;8629;42.496;25.620;2023-09-18T10:08:38;5.17;;;3.67;;
17024;SDS011;8629;42.496;25.620;2023-09-18T10:11:07;3.53;;;3.20;;
17024;SDS011;8629;42.496;25.620;2023-09-18T10:13:39;5.03;;;3.03;;
17024;SDS011;8629;42.496;25.620;2023-09-18T10:16:08;5.50;;;3.30;;
17024;SDS011;8629;42.496;25.620;2023-09-18T10:18:38;3.97;;;3.67;;
17024;SDS011;8629;42.496;25.620;2023-09-18T10:21:10;7.13;;;2.97;;
17024;SDS011;8629;42.496;25.620;2023-09-18T10:23:45;3.50;;;3.27;;
17024;SDS011;8629;42.496;25.620;2023-09-18T10:26:19;3.60;;;3.30;;
17024;SDS011;8629;42.496;25.620;2023-09-18T10:28:51;3.33;;;3.03;;
17024;SDS011;8629;42.496;25.620;2023-09-18T10:31:21;4.80;;;3.50;;
17024;SDS011;8629;42.496;25.620;2023-09-18T10:33:48;4.00;;;3.60;;
17024;SDS011;8629;42.496;25.620;2023-09-18T10:36:15;3.80;;;3.50;;
17024;SDS011;8629;42.496;25.620;2023-09-18T10:38:42;4.33;;;3.47;;
17024;SDS011;8629;42.496;25.620;2023-09-18T10:41:14;4.43;;;3.67;;
17024;SDS011;8629;42.496;25.620;2023-09-18T10:43:44;3.73;;;3.00;;
17024;SDS011;8629;42.496;25.620;2023-09-18T10:46:12;4.13;;;3.77;;
17024;SDS011;8629;42.496;25.620;2023-09-18T10:48:39;4.03;;;3.70;;
17024;SDS011;8629;42.496;25.620;2023-09-18T10:51:06;5.07;;;3.30;;
17024;SDS011;8629;42.496;25.620;2023-09-18T10:53:33;6.43;;;4.00;;
17024;SDS011;8629;42.496;25.620;2023-09-18T10:56:00;3.33;;;3.13;;
17024;SDS011;8629;42.496;25.620;2023-09-18T10:58:29;4.07;;;3.53;;
17024;SDS011;8629;42.496;25.620;2023-09-18T11:01:01;3.90;;;3.60;;
17024;SDS011;8629;42.496;25.620;2023-09-18T11:03:28;3.87;;;3.50;;
17024;SDS011;8629;42.496;25.620;2023-09-18T11:06:06;6.40;;;3.83;;
17024;SDS011;8629;42.496;25.620;2023-09-18T11:08:35;6.67;;;3.47;;
17024;SDS011;8629;42.496;25.620;2023-09-18T11:11:09;5.13;;;3.90;;
17024;SDS011;8629;42.496;25.620;2023-09-18T11:13:40;4.47;;;4.13;;
17024;SDS011;8629;42.496;25.620;2023-09-18T11:16:18;6.33;;;3.93;;
17024;SDS011;8629;42.496;25.620;2023-09-18T11:19:15;5.50;;;3.97;;
17024;SDS011;8629;42.496;25.620;2023-09-18T11:21:45;4.40;;;4.00;;
17024;SDS011;8629;42.496;25.620;2023-09-18T11:24:16;4.50;;;4.10;;
17024;SDS011;8629;42.496;25.620;2023-09-18T11:26:44;5.27;;;3.73;;
17024;SDS011;8629;42.496;25.620;2023-09-18T11:29:14;4.90;;;4.47;;
17024;SDS011;8629;42.496;25.620;2023-09-18T11:31:44;4.10;;;3.70;;
17024;SDS011;8629;42.496;25.620;2023-09-18T11:34:13;4.53;;;3.73;;
17024;SDS011;8629;42.496;25.620;2023-09-18T11:36:40;6.87;;;4.57;;
17024;SDS011;8629;42.496;25.620;2023-09-18T11:39:07;4.07;;;3.77;;
17024;SDS011;8629;42.496;25.620;2023-09-18T11:41:36;4.03;;;3.73;;
17024;SDS011;8629;42.496;25.620;2023-09-18T11:47:01;8.80;;;4.03;;
17024;SDS011;8629;42.496;25.620;2023-09-18T11:49:29;5.10;;;4.03;;
17024;SDS011;8629;42.496;25.620;2023-09-18T11:51:58;6.93;;;4.13;;
17024;SDS011;8629;42.496;25.620;2023-09-18T11:54:27;4.07;;;3.77;;
17024;SDS011;8629;42.496;25.620;2023-09-18T11:56:54;5.70;;;4.00;;
17024;SDS011;8629;42.496;25.620;2023-09-18T11:59:32;4.40;;;3.97;;
17024;SDS011;8629;42.496;25.620;2023-09-18T12:02:03;3.93;;;3.63;;
17024;SDS011;8629;42.496;25.620;2023-09-18T12:04:31;4.00;;;3.60;;
17024;SDS011;8629;42.496;25.620;2023-09-18T12:06:58;4.40;;;4.00;;
17024;SDS011;8629;42.496;25.620;2023-09-18T12:09:26;3.43;;;3.13;;
17024;SDS011;8629;42.496;25.620;2023-09-18T12:11:53;3.70;;;3.30;;
17024;SDS011;8629;42.496;25.620;2023-09-18T12:14:22;4.10;;;3.70;;
17024;SDS011;8629;42.496;25.620;2023-09-18T12:16:49;3.60;;;3.30;;
17024;SDS011;8629;42.496;25.620;2023-09-18T12:19:17;4.10;;;3.70;;
17024;SDS011;8629;42.496;25.620;2023-09-18T12:21:45;4.93;;;3.70;;
17024;SDS011;8629;42.496;25.620;2023-09-18T12:24:14;4.70;;;3.53;;
17024;SDS011;8629;42.496;25.620;2023-09-18T12:26:41;4.03;;;3.07;;
17024;SDS011;8629;42.496;25.620;2023-09-18T12:29:08;4.67;;;3.40;;
17024;SDS011;8629;42.496;25.620;2023-09-18T12:31:35;3.50;;;3.20;;
17024;SDS011;8629;42.496;25.620;2023-09-18T12:34:02;3.60;;;3.30;;
17024;SDS011;8629;42.496;25.620;2023-09-18T12:36:34;5.67;;;3.13;;
17024;SDS011;8629;42.496;25.620;2023-09-18T12:39:00;3.73;;;3.30;;
17024;SDS011;8629;42.496;25.620;2023-09-18T12:41:27;3.10;;;2.90;;
17024;SDS011;8629;42.496;25.620;2023-09-18T12:43:55;3.53;;;3.23;;
17024;SDS011;8629;42.496;25.620;2023-09-18T12:46:22;4.43;;;3.27;;
17024;SDS011;8629;42.496;25.620;2023-09-18T12:48:49;6.43;;;3.10;;
17024;SDS011;8629;42.496;25.620;2023-09-18T12:51:16;5.43;;;3.47;;
17024;SDS011;8629;42.496;25.620;2023-09-18T12:53:58;4.80;;;3.10;;
17024;SDS011;8629;42.496;25.620;2023-09-18T12:56:25;3.73;;;3.27;;
17024;SDS011;8629;42.496;25.620;2023-09-18T12:58:52;3.80;;;3.43;;
17024;SDS011;8629;42.496;25.620;2023-09-18T13:01:19;4.10;;;3.40;;
17024;SDS011;8629;42.496;25.620;2023-09-18T13:03:48;5.00;;;4.53;;
17024;SDS011;8629;42.496;25.620;2023-09-18T13:06:16;12.67;;;6.17;;
17024;SDS011;8629;42.496;25.620;2023-09-18T13:08:44;6.63;;;5.90;;
17024;SDS011;8629;42.496;25.620;2023-09-18T13:11:12;12.00;;;7.57;;
17024;SDS011;8629;42.496;25.620;2023-09-18T13:13:41;5.43;;;4.20;;
17024;SDS011;8629;42.496;25.620;2023-09-18T13:16:08;13.17;;;8.17;;
17024;SDS011;8629;42.496;25.620;2023-09-18T13:18:36;8.20;;;6.90;;
17024;SDS011;8629;42.496;25.620;2023-09-18T13:21:13;8.27;;;5.50;;
17024;SDS011;8629;42.496;25.620;2023-09-18T13:23:40;9.10;;;8.10;;
17024;SDS011;8629;42.496;25.620;2023-09-18T13:26:07;6.33;;;4.63;;
17024;SDS011;8629;42.496;25.620;2023-09-18T13:28:36;11.50;;;6.97;;
17024;SDS011;8629;42.496;25.620;2023-09-18T13:31:05;14.40;;;8.60;;
17024;SDS011;8629;42.496;25.620;2023-09-18T13:33:32;10.50;;;6.73;;
17024;SDS011;8629;42.496;25.620;2023-09-18T13:36:00;12.17;;;9.07;;
17024;SDS011;8629;42.496;25.620;2023-09-18T13:38:26;18.00;;;11.57;;
17024;SDS011;8629;42.496;25.620;2023-09-18T13:40:53;9.77;;;7.37;;
17024;SDS011;8629;42.496;25.620;2023-09-18T13:43:21;31.63;;;21.17;;
17024;SDS011;8629;42.496;25.620;2023-09-18T13:45:49;19.97;;;11.47;;
17024;SDS011;8629;42.496;25.620;2023-09-18T13:48:17;11.27;;;7.47;;
17024;SDS011;8629;42.496;25.620;2023-09-18T13:50:44;6.63;;;5.50;;
17024;SDS011;8629;42.496;25.620;2023-09-18T13:53:11;19.90;;;12.87;;
17024;SDS011;8629;42.496;25.620;2023-09-18T13:55:38;9.20;;;6.87;;
17024;SDS011;8629;42.496;25.620;2023-09-18T13:58:06;5.33;;;4.80;;
17024;SDS011;8629;42.496;25.620;2023-09-18T14:00:32;3.53;;;3.23;;
17024;SDS011;8629;42.496;25.620;2023-09-18T14:03:02;3.37;;;3.10;;
17024;SDS011;8629;42.496;25.620;2023-09-18T14:05:29;7.57;;;3.63;;
17024;SDS011;8629;42.496;25.620;2023-09-18T14:07:59;3.93;;;3.60;;
17024;SDS011;8629;42.496;25.620;2023-09-18T14:10:26;5.43;;;3.40;;
17024;SDS011;8629;42.496;25.620;2023-09-18T14:12:54;4.23;;;3.43;;
17024;SDS011;8629;42.496;25.620;2023-09-18T14:15:22;4.00;;;3.63;;
17024;SDS011;8629;42.496;25.620;2023-09-18T14:17:49;5.00;;;3.53;;
17024;SDS011;8629;42.496;25.620;2023-09-18T14:20:17;5.03;;;3.53;;
17024;SDS011;8629;42.496;25.620;2023-09-18T14:22:44;5.27;;;3.37;;
17024;SDS011;8629;42.496;25.620;2023-09-18T14:25:14;4.33;;;3.20;;
17024;SDS011;8629;42.496;25.620;2023-09-18T14:27:41;4.53;;;4.13;;
17024;SDS011;8629;42.496;25.620;2023-09-18T14:30:09;4.27;;;3.93;;
17024;SDS011;8629;42.496;25.620;2023-09-18T14:32:38;4.77;;;3.40;;
17024;SDS011;8629;42.496;25.620;2023-09-18T14:35:06;3.77;;;3.30;;
17024;SDS011;8629;42.496;25.620;2023-09-18T14:37:35;3.60;;;3.30;;
17024;SDS011;8629;42.496;25.620;2023-09-18T14:40:02;4.07;;;3.67;;
17024;SDS011;8629;42.496;25.620;2023-09-18T14:42:29;5.37;;;3.23;;
17024;SDS011;8629;42.496;25.620;2023-09-18T14:44:56;4.40;;;3.63;;
17024;SDS011;8629;42.496;25.620;2023-09-18T14:47:23;4.30;;;3.90;;
17024;SDS011;8629;42.496;25.620;2023-09-18T14:49:49;4.20;;;3.67;;
17024;SDS011;8629;42.496;25.620;2023-09-18T14:52:16;3.83;;;3.50;;
17024;SDS011;8629;42.496;25.620;2023-09-18T14:54:46;6.30;;;3.73;;
17024;SDS011;8629;42.496;25.620;2023-09-18T14:57:13;3.63;;;3.23;;
17024;SDS011;8629;42.496;25.620;2023-09-18T14:59:40;4.93;;;3.20;;